Accueil
METAR-TAF:

METAR-TAF

Aéroports :

Vineyard Haven, Massachusetts, États-Unis

latitude: 41-23-32N, longitude: 070-37-00W, altitude: 20 m

Observation

Le bulletin a été fait il y a 29 minutes, à 18:53 UTC
Vent 19 kt de ouest avec des rafales jusqu'à 29 kt
Température 9°C
Humidité 49%
Pression 990 hPa
Visibilité: 16.1 km
Quelques nuages à une hauteur de 7000 ft
Nuages fragmentés à une hauteur de 9000 ft

METAR: KMVY 101853Z 27019G29KT 10SM FEW070 BKN090 09/M01 A2923 RMK AO2 PK WND 26030/1800 SLP898 T00891011

Heure: 15:22 (19:22 UTC)


TAF: absent

Observations et prévisions météorologiques de plus de 4000 aéroports (messages METAR et TAF).

Les stations disponibles sont représentées par des disques jaunes et rouges sur la carte.

Passer la souris dessus pour voir le nom de la station.

Cliquer dessus pour voir les observations et prévisions météorologiques.

Pour changer de carte: cliquez sur les boutons verts avec une croix noire pour zoomer, sur le bouton vert avec un tiret pour effectuer un zoom arrière, ou sur les flèches vertes pour les cartes adjacentes.


METAR-TAF: